createdAt,value
2018-09-04T00:00:40.073Z,67.00
2018-09-04T00:03:08.382Z,75.00
2018-09-04T00:05:36.694Z,71.25
2018-09-04T00:08:05.201Z,63.50
2018-09-04T00:10:35.668Z,71.25
2018-09-04T00:13:03.990Z,71.50
2018-09-04T00:15:32.316Z,68.00
2018-09-04T00:18:00.664Z,75.50
2018-09-04T00:20:29.424Z,77.75
2018-09-04T00:22:58.681Z,76.50
2018-09-04T00:25:27.108Z,70.75
2018-09-04T00:27:55.416Z,74.00
2018-09-04T00:30:24.760Z,74.50
2018-09-04T00:32:54.003Z,74.25
2018-09-04T00:35:23.847Z,75.25
2018-09-04T00:37:53.019Z,69.50
2018-09-04T00:40:21.369Z,76.00
2018-09-04T00:42:49.662Z,74.50
2018-09-04T00:45:17.975Z,70.50
2018-09-04T00:47:46.289Z,66.00
2018-09-04T00:50:16.358Z,68.50
2018-09-04T00:55:42.490Z,74.50
2018-09-04T00:58:10.771Z,72.25
2018-09-04T01:00:39.083Z,80.75
2018-09-04T01:03:08.063Z,77.00
2018-09-04T01:05:36.412Z,78.00
2018-09-04T01:08:06.776Z,78.75
2018-09-04T01:10:35.703Z,74.50
2018-09-04T01:13:04.046Z,72.25
2018-09-04T01:15:32.414Z,74.75
2018-09-04T01:18:00.680Z,72.75
2018-09-04T01:20:29.003Z,76.50
2018-09-04T01:22:57.307Z,81.25
2018-09-04T01:25:25.727Z,76.00
2018-09-04T01:27:54.078Z,75.00
2018-09-04T01:30:23.838Z,80.00
2018-09-04T01:32:53.059Z,74.00
2018-09-04T01:35:21.517Z,77.25
2018-09-04T01:37:49.863Z,78.00
2018-09-04T01:40:18.191Z,75.25
2018-09-04T01:42:46.550Z,75.50
2018-09-04T01:45:14.903Z,75.25
2018-09-04T01:47:43.255Z,74.75
2018-09-04T01:50:11.547Z,71.00
2018-09-04T01:52:41.143Z,74.00
2018-09-04T01:55:09.484Z,76.75
2018-09-04T01:57:37.822Z,73.25
2018-09-04T02:00:07.607Z,72.00
2018-09-04T02:02:36.636Z,75.25
2018-09-04T02:05:08.222Z,77.00
2018-09-04T02:07:36.624Z,82.25
2018-09-04T02:10:06.808Z,75.75
2018-09-04T02:12:35.216Z,71.50
2018-09-04T02:15:03.601Z,76.75
2018-09-04T02:17:31.949Z,79.75
2018-09-04T02:20:00.367Z,78.25
2018-09-04T02:22:28.707Z,81.00
2018-09-04T02:24:57.039Z,70.00
2018-09-04T02:27:25.378Z,75.00
2018-09-04T02:29:54.088Z,71.50
2018-09-04T02:32:22.471Z,70.50
2018-09-04T02:34:50.844Z,75.50
2018-09-04T02:37:19.198Z,71.25
2018-09-04T02:39:47.513Z,77.50
2018-09-04T02:42:15.908Z,73.75
2018-09-04T02:44:49.854Z,72.75
2018-09-04T02:47:19.261Z,77.25
2018-09-04T02:49:48.323Z,77.75
2018-09-04T02:52:17.731Z,77.50
2018-09-04T02:54:46.046Z,83.50
2018-09-04T02:57:14.440Z,81.00
2018-09-04T02:59:43.304Z,81.25
2018-09-04T03:02:11.892Z,73.50
2018-09-04T03:04:40.263Z,70.25
2018-09-04T03:07:09.529Z,77.00
2018-09-04T03:09:38.763Z,69.75
2018-09-04T03:12:08.109Z,73.25
2018-09-04T03:14:36.491Z,71.50
2018-09-04T03:17:04.857Z,76.00
2018-09-04T03:19:33.168Z,73.25
2018-09-04T03:22:01.496Z,76.25
2018-09-04T03:24:30.687Z,71.50
2018-09-04T03:26:59.363Z,68.50
2018-09-04T03:29:27.719Z,74.75
2018-09-04T03:31:56.071Z,66.75
2018-09-04T03:34:24.424Z,71.75
2018-09-04T03:36:55.672Z,71.75
2018-09-04T03:39:24.187Z,74.00
2018-09-04T03:41:52.550Z,76.25
2018-09-04T03:44:20.863Z,76.75
2018-09-04T03:46:49.271Z,75.75
2018-09-04T03:49:24.076Z,72.75
2018-09-04T03:51:52.370Z,72.75
2018-09-04T03:54:20.713Z,68.75
2018-09-04T03:56:50.079Z,79.50
2018-09-04T03:59:18.395Z,69.50
2018-09-04T04:01:48.746Z,70.50
2018-09-04T04:04:17.064Z,83.50
2018-09-04T04:06:45.388Z,70.00
2018-09-04T04:09:14.328Z,60.75
2018-09-04T04:11:42.679Z,64.75
2018-09-04T04:14:11.016Z,76.25
2018-09-04T04:16:39.349Z,68.00
2018-09-04T04:19:07.660Z,64.25
2018-09-04T04:21:35.965Z,68.75
2018-09-04T04:24:06.055Z,68.75
2018-09-04T04:26:34.364Z,69.50
2018-09-04T04:29:02.707Z,67.50
2018-09-04T04:31:31.016Z,66.75
2018-09-04T04:33:59.307Z,65.25
2018-09-04T04:36:27.654Z,65.75
2018-09-04T04:39:06.798Z,62.50
2018-09-04T04:41:35.423Z,68.00
2018-09-04T04:44:04.867Z,68.50
2018-09-04T04:46:33.180Z,65.25
2018-09-04T04:49:01.471Z,69.00
2018-09-04T04:51:29.762Z,66.00
2018-09-04T04:53:58.035Z,64.00
2018-09-04T04:56:26.335Z,69.50
2018-09-04T04:58:54.636Z,61.00
2018-09-04T05:01:22.939Z,62.50
2018-09-04T05:03:51.367Z,64.25
2018-09-04T05:06:20.553Z,61.75
2018-09-04T05:08:48.848Z,71.50
2018-09-04T05:11:17.250Z,67.00
2018-09-04T05:13:45.469Z,66.25
2018-09-04T05:16:13.779Z,64.75
2018-09-04T05:18:42.125Z,64.75
2018-09-04T05:21:11.351Z,66.00
2018-09-04T05:23:39.733Z,67.75
2018-09-04T05:26:08.054Z,68.75
2018-09-04T05:28:36.431Z,73.75
2018-09-04T05:31:04.777Z,71.25
2018-09-04T05:33:35.847Z,70.25
2018-09-04T05:36:04.163Z,68.25
2018-09-04T05:38:32.489Z,71.75
2018-09-04T05:41:00.808Z,69.00
2018-09-04T05:43:36.234Z,65.00
2018-09-04T05:46:09.713Z,70.75
2018-09-04T05:48:38.059Z,69.00
2018-09-04T05:51:06.375Z,71.00
2018-09-04T05:53:36.603Z,69.25
2018-09-04T05:56:04.911Z,66.75
2018-09-04T05:58:33.227Z,67.50
2018-09-04T06:01:02.851Z,67.50
2018-09-04T06:03:31.178Z,71.25
2018-09-04T06:05:59.508Z,67.25
2018-09-04T06:08:27.803Z,68.00
2018-09-04T06:10:56.091Z,72.25
2018-09-04T06:13:24.423Z,67.50
2018-09-04T06:15:52.759Z,63.00
2018-09-04T06:18:21.102Z,69.25
2018-09-04T06:20:49.376Z,75.00
2018-09-04T06:23:17.994Z,70.50
2018-09-04T06:25:46.409Z,74.00
2018-09-04T06:28:14.740Z,66.50
2018-09-04T06:30:43.110Z,69.00
2018-09-04T06:33:11.408Z,67.50
2018-09-04T06:35:39.720Z,70.75
2018-09-04T06:38:08.024Z,67.00
2018-09-04T06:40:36.353Z,70.75
2018-09-04T06:43:04.703Z,76.50
2018-09-04T06:45:33.011Z,65.75
2018-09-04T06:48:01.332Z,68.00
2018-09-04T06:50:29.636Z,67.00
2018-09-04T06:52:57.932Z,70.25
2018-09-04T06:55:26.169Z,71.00
2018-09-04T06:57:54.567Z,68.50
2018-09-04T07:00:22.898Z,69.50
2018-09-04T07:02:51.200Z,66.50
2018-09-04T07:05:19.523Z,75.75
2018-09-04T07:07:47.842Z,64.50
2018-09-04T07:10:16.224Z,66.75
2018-09-04T07:12:44.527Z,70.50
2018-09-04T07:15:12.840Z,66.75
2018-09-04T07:17:41.135Z,73.50
2018-09-04T07:20:09.445Z,75.25
2018-09-04T07:22:37.789Z,73.75
2018-09-04T07:25:06.348Z,66.75
2018-09-04T07:27:35.761Z,72.00
2018-09-04T07:30:04.808Z,72.00
2018-09-04T07:32:34.213Z,68.50
2018-09-04T07:35:02.520Z,65.75
2018-09-04T07:37:30.806Z,68.00
2018-09-04T07:39:59.819Z,68.00
2018-09-04T07:42:28.135Z,64.75
2018-09-04T07:44:56.483Z,65.00
2018-09-04T07:47:24.775Z,68.25
2018-09-04T07:49:53.068Z,58.00
2018-09-04T07:52:21.363Z,60.00
2018-09-04T07:54:49.681Z,57.50
2018-09-04T07:57:17.962Z,60.50
2018-09-04T07:59:46.555Z,59.25
2018-09-04T08:02:14.848Z,53.25
2018-09-04T08:04:43.139Z,64.50
2018-09-04T08:07:11.473Z,58.25
2018-09-04T08:09:39.763Z,60.00
2018-09-04T08:12:08.177Z,59.50
2018-09-04T08:14:36.482Z,57.00
2018-09-04T08:17:04.797Z,60.25
2018-09-04T08:19:33.087Z,59.50
2018-09-04T08:22:01.357Z,59.00
2018-09-04T08:24:29.947Z,58.50
2018-09-04T08:26:58.294Z,56.75
2018-09-04T08:29:26.595Z,60.00
2018-09-04T08:31:55.119Z,56.75
2018-09-04T08:34:24.291Z,59.75
2018-09-04T08:36:52.611Z,58.75
2018-09-04T08:39:20.926Z,59.00
2018-09-04T08:41:49.258Z,56.25
2018-09-04T08:44:17.551Z,54.00
2018-09-04T08:46:45.884Z,53.25
2018-09-04T08:49:14.176Z,61.25
2018-09-04T08:51:42.478Z,57.75
2018-09-04T08:54:11.360Z,59.75
2018-09-04T08:56:39.659Z,56.00
2018-09-04T08:59:07.979Z,57.50
2018-09-04T09:01:36.260Z,59.75
2018-09-04T09:04:04.566Z,61.00
2018-09-04T09:06:32.815Z,55.50
2018-09-04T09:09:01.156Z,59.75
2018-09-04T09:11:29.475Z,54.50
2018-09-04T09:13:57.763Z,57.00
2018-09-04T09:16:26.038Z,51.00
2018-09-04T09:18:54.381Z,58.75
2018-09-04T09:21:22.649Z,59.00
2018-09-04T09:23:50.941Z,52.00
2018-09-04T09:26:19.256Z,53.00
2018-09-04T09:28:47.544Z,52.25
2018-09-04T09:31:15.811Z,52.25
2018-09-04T09:33:44.147Z,52.50
2018-09-04T09:36:12.459Z,52.50
2018-09-04T09:38:40.769Z,55.00
2018-09-04T09:41:09.053Z,53.75
2018-09-04T09:43:37.413Z,53.50
2018-09-04T09:46:05.738Z,55.75
2018-09-04T09:48:39.393Z,49.00
2018-09-04T09:51:07.855Z,49.00
2018-09-04T09:53:36.515Z,58.00
2018-09-04T09:56:05.777Z,55.50
2018-09-04T09:58:34.074Z,57.25
2018-09-04T10:01:07.855Z,51.75
2018-09-04T10:03:42.290Z,52.25
2018-09-04T10:06:10.627Z,52.25
2018-09-04T10:08:38.919Z,54.75
2018-09-04T10:11:07.469Z,51.75
2018-09-04T10:13:35.731Z,51.75
2018-09-04T10:16:04.077Z,53.00
2018-09-04T10:18:32.344Z,52.25
2018-09-04T10:21:00.620Z,50.75
2018-09-04T10:23:28.990Z,50.50
2018-09-04T10:25:57.306Z,49.75
2018-09-04T10:28:25.757Z,44.00
2018-09-04T10:30:54.074Z,49.75
2018-09-04T10:33:23.236Z,44.75
2018-09-04T10:35:51.556Z,47.75
2018-09-04T10:38:24.236Z,44.25
2018-09-04T10:40:55.065Z,50.00
2018-09-04T10:43:26.128Z,50.25
2018-09-04T10:45:59.634Z,48.50
2018-09-04T10:48:29.440Z,42.50
2018-09-04T10:50:57.832Z,49.25
2018-09-04T10:53:26.292Z,47.75
2018-09-04T10:55:54.668Z,49.50
2018-09-04T10:58:23.000Z,42.00
2018-09-04T11:00:51.321Z,40.75
2018-09-04T11:03:19.621Z,44.00
2018-09-04T11:05:47.932Z,44.50
2018-09-04T11:08:16.247Z,45.50
2018-09-04T11:10:44.551Z,44.75
2018-09-04T11:13:12.874Z,45.25
2018-09-04T11:15:41.197Z,50.25
2018-09-04T11:18:09.568Z,40.75
2018-09-04T11:20:37.877Z,48.00
2018-09-04T11:23:06.207Z,44.75
2018-09-04T11:25:34.518Z,42.25
2018-09-04T11:28:02.827Z,40.25
2018-09-04T11:30:31.157Z,45.25
2018-09-04T11:32:59.464Z,43.00
2018-09-04T11:35:27.803Z,41.75
2018-09-04T11:37:56.096Z,41.75
2018-09-04T11:40:24.396Z,40.00
2018-09-04T11:42:52.718Z,43.00
2018-09-04T11:45:21.566Z,46.50
2018-09-04T11:47:49.865Z,44.75
2018-09-04T11:50:18.683Z,49.50
2018-09-04T11:52:46.963Z,48.25
2018-09-04T11:55:15.299Z,51.00
2018-09-04T11:57:43.596Z,48.75
2018-09-04T12:00:17.284Z,49.25
2018-09-04T12:02:46.068Z,41.25
2018-09-04T12:05:14.358Z,47.50
2018-09-04T12:07:42.662Z,46.50
2018-09-04T12:10:11.634Z,42.00
2018-09-04T12:12:40.669Z,41.00
2018-09-04T12:15:08.815Z,46.75
2018-09-04T12:17:37.211Z,40.00
2018-09-04T12:20:16.679Z,45.25
2018-09-04T12:22:45.015Z,48.00
2018-09-04T12:25:13.322Z,41.25
2018-09-04T12:27:41.624Z,44.25
2018-09-04T12:30:10.136Z,43.25
2018-09-04T12:32:38.431Z,47.25
2018-09-04T12:35:06.790Z,45.50
2018-09-04T12:37:35.109Z,45.75
2018-09-04T12:40:03.432Z,42.50
2018-09-04T12:42:31.771Z,46.00
2018-09-04T12:45:01.029Z,44.25
2018-09-04T12:47:29.575Z,43.25
2018-09-04T12:49:58.170Z,39.50
2018-09-04T12:52:26.463Z,40.00
2018-09-04T12:54:54.756Z,40.25
2018-09-04T12:57:23.078Z,38.00
2018-09-04T12:59:52.489Z,42.50
2018-09-04T13:02:20.722Z,43.75
2018-09-04T13:04:49.012Z,41.75
2018-09-04T13:07:17.460Z,41.25
2018-09-04T13:09:45.787Z,37.75
2018-09-04T13:12:14.137Z,40.75
2018-09-04T13:14:42.649Z,41.50
2018-09-04T13:17:10.886Z,39.50
2018-09-04T13:19:39.168Z,38.75
2018-09-04T13:22:08.095Z,41.25
2018-09-04T13:24:36.418Z,44.75
2018-09-04T13:27:04.770Z,38.50
2018-09-04T13:29:33.079Z,39.50
2018-09-04T13:32:01.372Z,45.00
2018-09-04T13:34:29.691Z,44.50
2018-09-04T13:36:58.023Z,39.25
2018-09-04T13:39:26.315Z,43.00
2018-09-04T13:41:56.914Z,37.25
2018-09-04T13:44:25.228Z,43.50
2018-09-04T13:46:53.532Z,45.00
2018-09-04T13:49:21.889Z,41.50
2018-09-04T13:51:50.190Z,39.25
2018-09-04T13:54:18.475Z,45.75
2018-09-04T13:56:46.817Z,40.00
2018-09-04T13:59:15.093Z,41.50
2018-09-04T14:01:47.103Z,35.25
2018-09-04T14:04:16.445Z,38.75
2018-09-04T14:06:44.851Z,38.00
2018-09-04T14:09:13.162Z,43.00
2018-09-04T14:11:41.535Z,38.25
2018-09-04T14:14:09.852Z,35.25
2018-09-04T14:16:43.150Z,39.75
2018-09-04T14:19:06.531Z,40.25
2018-09-04T14:21:34.836Z,38.50
2018-09-04T14:24:03.127Z,39.75
2018-09-04T14:26:31.448Z,40.00
2018-09-04T14:29:06.964Z,43.25
2018-09-04T14:31:28.051Z,50.25
2018-09-04T14:33:56.383Z,52.25
2018-09-04T14:36:25.791Z,56.25
2018-09-04T14:38:54.096Z,54.50
2018-09-04T14:41:22.383Z,59.00
2018-09-04T14:43:51.523Z,58.50
2018-09-04T14:46:19.801Z,57.75
2018-09-04T14:48:48.134Z,59.00
2018-09-04T14:51:16.433Z,58.50
2018-09-04T14:53:44.723Z,58.00
2018-09-04T14:56:13.144Z,56.25
2018-09-04T14:58:41.471Z,57.50
2018-09-04T15:01:09.753Z,55.25
2018-09-04T15:03:38.061Z,55.75
2018-09-04T15:06:17.857Z,54.75
2018-09-04T15:08:46.172Z,55.75
2018-09-04T15:11:14.491Z,53.75
2018-09-04T15:13:42.788Z,53.75
2018-09-04T15:16:11.073Z,56.75
2018-09-04T15:18:41.295Z,55.00
2018-09-04T15:21:09.591Z,53.50
2018-09-04T15:23:37.841Z,53.00
2018-09-04T15:26:06.223Z,55.25
2018-09-04T15:28:34.452Z,54.50
2018-09-04T15:31:02.756Z,54.50
2018-09-04T15:33:31.121Z,52.50
2018-09-04T15:35:59.400Z,56.00
2018-09-04T15:38:27.677Z,56.00
2018-09-04T15:40:55.940Z,49.25
2018-09-04T15:43:24.258Z,52.00
2018-09-04T15:45:52.582Z,48.25
2018-09-04T15:48:20.827Z,40.25
2018-09-04T15:50:49.131Z,43.00
2018-09-04T15:53:17.430Z,36.75
2018-09-04T15:55:45.738Z,38.25
2018-09-04T15:58:14.056Z,37.50
2018-09-04T16:00:42.347Z,35.25
2018-09-04T16:03:10.637Z,41.50
2018-09-04T16:05:39.692Z,39.50
2018-09-04T16:08:08.077Z,44.75
2018-09-04T16:10:36.364Z,33.75
2018-09-04T16:13:04.648Z,33.75
2018-09-04T16:15:32.943Z,33.25
2018-09-04T16:18:01.239Z,28.25
2018-09-04T16:20:29.532Z,27.75
2018-09-04T16:22:57.832Z,29.25
2018-09-04T16:25:26.152Z,31.00
2018-09-04T16:27:54.430Z,30.75
2018-09-04T16:30:22.733Z,29.00
2018-09-04T16:32:51.027Z,29.75
2018-09-04T16:35:19.310Z,28.00
2018-09-04T16:37:47.605Z,31.75
2018-09-04T16:40:15.908Z,32.75
2018-09-04T16:42:44.206Z,31.50
2018-09-04T16:45:12.481Z,32.00
2018-09-04T16:47:40.775Z,29.50
2018-09-04T16:50:09.086Z,30.50
2018-09-04T16:52:37.392Z,32.00
2018-09-04T16:55:05.890Z,30.25
2018-09-04T16:57:34.173Z,33.75
2018-09-04T17:00:02.437Z,31.00
2018-09-04T17:02:31.125Z,32.50
2018-09-04T17:04:59.459Z,34.50
2018-09-04T17:07:27.776Z,33.75
2018-09-04T17:09:56.061Z,37.00
2018-09-04T17:12:24.459Z,41.75
2018-09-04T17:14:52.812Z,41.50
2018-09-04T17:17:21.112Z,35.50
2018-09-04T17:19:49.467Z,41.25
2018-09-04T17:22:17.775Z,38.75
2018-09-04T17:24:46.232Z,37.75
2018-09-04T17:27:14.552Z,37.75
2018-09-04T17:29:43.728Z,38.25
2018-09-04T17:32:12.105Z,41.25
2018-09-04T17:34:40.397Z,39.75
2018-09-04T17:37:08.701Z,44.00
2018-09-04T17:39:37.602Z,39.25
2018-09-04T17:42:10.033Z,38.50
2018-09-04T17:44:39.916Z,47.75
2018-09-04T17:47:12.339Z,43.50
2018-09-04T17:49:44.758Z,34.00
2018-09-04T17:52:13.291Z,38.00
2018-09-04T17:54:42.757Z,40.25
2018-09-04T17:57:11.183Z,39.50
2018-09-04T17:59:39.481Z,42.50
2018-09-04T18:02:07.780Z,39.50
2018-09-04T18:04:36.168Z,35.50
2018-09-04T18:07:04.465Z,38.50
2018-09-04T18:09:32.740Z,36.75
2018-09-04T18:12:02.709Z,39.75
2018-09-04T18:14:30.900Z,37.75
2018-09-04T18:16:59.294Z,39.00
2018-09-04T18:19:27.589Z,37.25
2018-09-04T18:21:55.879Z,41.75
2018-09-04T18:24:25.488Z,37.75
2018-09-04T18:26:53.783Z,37.25
2018-09-04T18:29:23.437Z,40.25
2018-09-04T18:31:56.357Z,40.25
2018-09-04T18:34:38.781Z,41.25
2018-09-04T18:37:07.116Z,38.00
2018-09-04T18:39:35.465Z,45.00
2018-09-04T18:42:03.763Z,43.25
2018-09-04T18:44:33.846Z,47.00
2018-09-04T18:47:02.146Z,50.50
2018-09-04T18:49:30.432Z,46.25
2018-09-04T18:51:58.719Z,49.00
2018-09-04T18:54:27.011Z,44.25
2018-09-04T18:56:57.339Z,46.50
2018-09-04T18:59:25.847Z,49.50
2018-09-04T19:01:54.477Z,53.50
2018-09-04T19:04:22.752Z,54.75
2018-09-04T19:06:51.126Z,55.75
2018-09-04T19:09:19.321Z,54.00
2018-09-04T19:11:47.603Z,52.00
2018-09-04T19:14:15.959Z,54.50
2018-09-04T19:16:44.212Z,53.75
2018-09-04T19:19:12.522Z,58.75
2018-09-04T19:21:40.834Z,57.50
2018-09-04T19:24:09.181Z,60.00
2018-09-04T19:26:37.442Z,61.00
2018-09-04T19:29:07.774Z,55.25
2018-09-04T19:31:36.081Z,61.25
2018-09-04T19:34:04.398Z,65.75
2018-09-04T19:36:32.687Z,63.50
2018-09-04T19:39:01.408Z,63.25
2018-09-04T19:41:29.689Z,67.25
2018-09-04T19:43:57.986Z,71.00
2018-09-04T19:46:26.385Z,69.50
2018-09-04T19:48:54.689Z,73.00
2018-09-04T19:51:23.010Z,72.50
2018-09-04T19:53:51.283Z,68.50
2018-09-04T19:56:19.898Z,73.25
2018-09-04T19:58:48.239Z,73.50
2018-09-04T20:01:16.539Z,72.25
2018-09-04T20:03:45.072Z,73.75
2018-09-04T20:06:13.558Z,76.75
2018-09-04T20:08:42.084Z,72.75
2018-09-04T20:11:10.387Z,76.50
2018-09-04T20:13:38.682Z,72.50
2018-09-04T20:16:06.964Z,67.25
2018-09-04T20:18:35.251Z,74.00
2018-09-04T20:21:03.536Z,74.50
2018-09-04T20:23:31.835Z,79.25
2018-09-04T20:26:00.146Z,78.50
2018-09-04T20:28:28.414Z,78.25
2018-09-04T20:30:56.778Z,73.25
2018-09-04T20:33:25.093Z,78.25
2018-09-04T20:35:53.401Z,75.25
2018-09-04T20:38:21.677Z,78.75
2018-09-04T20:40:50.867Z,78.25
2018-09-04T20:43:19.233Z,77.00
2018-09-04T20:45:47.534Z,80.00
2018-09-04T20:48:15.839Z,80.25
2018-09-04T20:50:44.133Z,77.75
2018-09-04T20:53:12.407Z,78.50
2018-09-04T20:55:40.712Z,77.25
2018-09-04T20:58:20.423Z,80.00
2018-09-04T21:01:02.183Z,79.50
2018-09-04T21:03:41.684Z,80.50
2018-09-04T21:06:21.408Z,76.50
2018-09-04T21:08:58.918Z,82.50
2018-09-04T21:11:28.111Z,76.50
2018-09-04T21:13:56.503Z,81.50
2018-09-04T21:16:24.816Z,81.25
2018-09-04T21:18:53.154Z,82.75
2018-09-04T21:21:21.537Z,80.00
2018-09-04T21:23:49.774Z,82.75
2018-09-04T21:26:18.048Z,84.00
2018-09-04T21:28:46.347Z,83.75
2018-09-04T21:31:14.624Z,80.75
2018-09-04T21:33:42.883Z,81.00
2018-09-04T21:36:11.180Z,87.00
2018-09-04T21:38:39.442Z,81.25
2018-09-04T21:41:07.717Z,81.50
2018-09-04T21:43:36.004Z,81.25
2018-09-04T21:46:04.321Z,86.50
2018-09-04T21:48:32.592Z,85.00
2018-09-04T21:51:00.876Z,82.25
2018-09-04T21:54:12.606Z,76.00
2018-09-04T21:56:40.880Z,81.50
2018-09-04T21:59:09.156Z,81.00
2018-09-04T22:01:37.468Z,78.50
2018-09-04T22:04:05.814Z,78.50
2018-09-04T22:06:34.103Z,84.75
2018-09-04T22:09:02.394Z,87.25
2018-09-04T22:11:30.634Z,80.00
2018-09-04T22:13:58.962Z,82.50
2018-09-04T22:16:27.251Z,86.50
2018-09-04T22:18:55.538Z,84.50
2018-09-04T22:21:23.815Z,83.75
2018-09-04T22:23:52.112Z,87.25
2018-09-04T22:26:20.383Z,87.00
2018-09-04T22:28:48.678Z,78.75
2018-09-04T22:31:16.974Z,86.50
2018-09-04T22:33:45.274Z,83.25
2018-09-04T22:36:13.583Z,86.00
2018-09-04T22:38:41.842Z,84.25
2018-09-04T22:41:10.069Z,86.00
2018-09-04T22:43:38.580Z,88.75
2018-09-04T22:46:07.290Z,85.00
2018-09-04T22:48:35.574Z,85.00
2018-09-04T22:51:09.072Z,82.25
2018-09-04T22:53:37.374Z,83.75
2018-09-04T22:56:05.658Z,80.50
2018-09-04T22:58:33.958Z,85.00
2018-09-04T23:01:02.259Z,81.75
2018-09-04T23:03:30.491Z,84.50
2018-09-04T23:05:58.766Z,78.25
2018-09-04T23:08:27.418Z,85.25
2018-09-04T23:10:55.672Z,79.50
2018-09-04T23:13:24.083Z,88.75
2018-09-04T23:15:52.355Z,85.50
2018-09-04T23:18:20.642Z,84.25
2018-09-04T23:20:48.928Z,81.25
2018-09-04T23:23:17.222Z,89.25
2018-09-04T23:25:45.484Z,86.25
2018-09-04T23:28:13.776Z,87.75
2018-09-04T23:30:42.040Z,84.00
2018-09-04T23:33:10.345Z,80.50
2018-09-04T23:35:38.644Z,89.00
2018-09-04T23:38:06.913Z,87.75
2018-09-04T23:40:36.174Z,88.25
2018-09-04T23:43:04.514Z,85.00
2018-09-04T23:45:32.810Z,83.75
2018-09-04T23:48:01.069Z,88.00
2018-09-04T23:50:30.407Z,85.25
2018-09-04T23:52:58.704Z,81.50
2018-09-04T23:55:26.952Z,87.50
2018-09-04T23:57:55.291Z,86.50
